Time;durP1;ratioP1;P1;durP2;ratioP2;P2;SDS_P1;SDS_P2;PMS_P1;PMS_P2;Temp;Humidity;BMP_temperature;BMP_pressure;BME280_temperature;BME280_humidity;BME280_pressure;Samples;Min_cycle;Max_cycle;Signal;HPM_P1;HPM_P2
2021/03/25 00:01:29;;;;;;;44.67;20.02;;;4.30;99.90;;;5.25;83.21;101006.47;4981980;28;20113;-84
2021/03/25 00:03:55;;;;;;;41.30;19.60;;;4.30;99.90;;;5.37;82.16;101000.34;4981518;28;20027;-81
2021/03/25 00:06:28;;;;;;;46.78;19.80;;;4.40;99.90;;;5.45;82.36;101008.75;4981809;28;20552;-83
2021/03/25 00:08:56;;;;;;;41.88;17.92;;;4.40;99.90;;;5.40;82.05;101008.84;4981103;28;20030;-83
2021/03/25 00:11:23;;;;;;;41.28;18.70;;;4.40;99.90;;;5.36;81.90;101007.88;4999073;28;20031;-83
2021/03/25 00:13:49;;;;;;;37.75;17.13;;;4.30;99.90;;;5.31;81.86;101005.22;4981286;28;20091;-83
2021/03/25 00:16:16;;;;;;;40.70;17.98;;;4.30;99.90;;;5.26;82.09;101020.03;4981346;28;20126;-81
2021/03/25 00:18:42;;;;;;;38.63;17.92;;;4.20;99.90;;;5.20;82.71;101007.41;4998978;28;20113;-81
2021/03/25 00:21:11;;;;;;;38.40;18.00;;;4.20;99.90;;;5.14;82.45;101005.88;4998645;28;20150;-83
2021/03/25 00:23:38;;;;;;;40.53;19.42;;;4.10;99.90;;;5.08;82.36;101009.91;4981304;28;20065;-83
2021/03/25 00:26:04;;;;;;;41.15;18.42;;;4.10;99.90;;;4.95;82.75;101016.31;4998129;28;20027;-83
2021/03/25 00:28:31;;;;;;;43.70;18.45;;;4.00;99.90;;;4.81;83.35;101006.41;4998407;28;20050;-83
2021/03/25 00:30:58;;;;;;;42.22;18.30;;;3.90;99.90;;;4.76;83.90;101008.16;4998612;28;20112;-80
2021/03/25 00:33:24;;;;;;;42.03;18.95;;;3.80;99.90;;;4.81;84.71;101011.94;4998694;28;20034;-81
2021/03/25 00:35:51;;;;;;;44.97;19.60;;;3.80;99.90;;;4.84;84.86;101005.78;4980616;28;20053;-81
2021/03/25 00:38:18;;;;;;;41.40;19.30;;;3.90;99.90;;;4.87;84.57;100992.16;4980906;28;20031;-83
2021/03/25 00:40:50;;;;;;;40.97;19.65;;;3.90;99.90;;;4.93;84.59;100990.06;4997771;28;20405;-84
2021/03/25 00:43:23;;;;;;;52.63;21.27;;;3.90;99.90;;;5.07;84.94;100993.63;4980415;28;20028;-83
2021/03/25 00:45:51;;;;;;;42.50;18.92;;;4.00;99.90;;;5.24;83.48;100993.75;4981038;28;20033;-81
2021/03/25 00:48:23;;;;;;;38.97;18.55;;;4.10;99.90;;;5.22;83.13;100991.31;4981028;28;20050;-81
2021/03/25 00:50:55;;;;;;;32.55;16.38;;;4.10;99.90;;;5.05;83.47;100987.56;4997866;28;20018;-82
2021/03/25 00:53:30;;;;;;;43.65;18.23;;;4.00;99.90;;;4.90;83.15;100985.16;4998613;28;20485;-83
2021/03/25 00:55:57;;;;;;;35.50;17.45;;;3.90;99.90;;;4.73;83.53;100989.41;4980756;28;20052;-82
2021/03/25 00:58:24;;;;;;;36.13;17.25;;;3.80;99.90;;;4.58;84.25;100987.00;4981460;28;20509;-84
2021/03/25 01:00:50;;;;;;;47.42;18.65;;;3.70;99.90;;;4.54;84.90;100990.66;4980734;28;20041;-80
2021/03/25 01:03:22;;;;;;;40.83;17.27;;;3.60;99.90;;;4.50;85.48;100984.09;4980975;28;20034;-81
2021/03/25 01:05:48;;;;;;;41.72;18.85;;;3.60;99.90;;;4.45;85.67;100987.81;4980891;28;20564;-82
2021/03/25 01:08:15;;;;;;;38.38;17.00;;;3.60;99.90;;;4.32;84.97;100982.28;4980095;28;20022;-80
2021/03/25 01:10:50;;;;;;;34.28;17.52;;;3.40;99.90;;;4.12;85.31;100983.53;4997080;28;20040;-83
2021/03/25 01:13:28;;;;;;;39.65;18.10;;;3.30;99.90;;;4.05;85.42;100981.16;4980477;28;20092;-80
2021/03/25 01:15:54;;;;;;;47.40;19.33;;;3.20;99.90;;;4.04;86.16;100985.09;4979816;28;20038;-83
2021/03/25 01:18:20;;;;;;;44.70;18.95;;;3.20;99.90;;;4.12;86.76;100972.47;4980530;28;20027;-83
2021/03/25 01:20:47;;;;;;;46.78;19.98;;;3.20;99.90;;;4.09;86.80;100967.56;4997517;28;20034;-82
2021/03/25 01:23:15;;;;;;;49.58;21.13;;;3.20;99.90;;;4.12;87.15;100966.94;4981352;28;20034;-83
2021/03/25 01:25:41;;;;;;;45.35;19.63;;;3.20;99.90;;;4.15;87.16;100963.56;4982388;28;20130;-80
2021/03/25 01:28:13;;;;;;;50.00;20.50;;;3.30;99.90;;;4.25;87.72;100966.94;4982939;28;20039;-83
2021/03/25 01:30:42;;;;;;;47.38;21.63;;;3.40;99.90;;;4.30;87.88;100965.22;5002551;28;20109;-82
2021/03/25 01:33:12;;;;;;;48.05;19.95;;;3.40;99.90;;;4.36;87.87;100962.03;4998201;28;20060;-81
2021/03/25 01:35:41;;;;;;;47.80;20.65;;;3.40;99.90;;;4.50;87.56;100965.56;4981785;28;20037;-80
2021/03/25 01:38:13;;;;;;;45.85;20.77;;;3.50;99.90;;;4.57;87.17;100965.16;4999427;28;20030;-81
2021/03/25 01:40:49;;;;;;;43.80;18.92;;;3.50;99.90;;;4.65;87.27;100954.19;4998315;28;20033;-81
2021/03/25 01:43:40;;;;;;;41.30;18.75;;;3.60;99.90;;;4.66;86.55;100957.75;4983961;28;20034;-82
2021/03/25 01:46:26;;;;;;;51.10;20.83;;;3.60;99.90;;;4.62;86.96;100951.22;4986179;28;20041;-82
2021/03/25 01:49:05;;;;;;;42.55;19.27;;;3.60;99.90;;;4.57;86.72;100956.84;4985361;28;20033;-81
2021/03/25 01:51:53;;;;;;;37.00;18.60;;;3.50;99.90;;;4.52;86.72;100946.75;5001019;28;20030;-83
2021/03/25 01:54:37;;;;;;;45.50;19.70;;;3.50;99.90;;;4.54;86.70;100950.00;4992025;28;20132;-81
2021/03/25 01:57:03;;;;;;;45.25;19.60;;;3.50;99.90;;;4.63;87.02;100947.31;4998397;28;20053;-80
2021/03/25 02:00:05;;;;;;;45.33;19.65;;;3.60;99.90;;;4.69;86.62;100948.81;4981324;28;20027;-82
2021/03/25 02:03:10;;;;;;;40.05;19.77;;;3.60;99.90;;;4.68;86.21;100938.91;4982184;28;20034;-82
2021/03/25 02:06:17;;;;;;;41.38;19.67;;;3.60;99.90;;;4.56;86.59;100939.44;5000025;28;20026;-82
2021/03/25 02:09:05;;;;;;;40.13;18.20;;;3.50;99.90;;;4.48;85.99;100931.06;4998421;28;20041;-80
2021/03/25 02:11:55;;;;;;;47.35;19.73;;;3.40;99.90;;;4.31;86.50;100934.47;4997654;28;20034;-82
2021/03/25 02:14:44;;;;;;;36.88;17.75;;;3.30;99.90;;;4.14;86.23;100931.53;4998062;28;20026;-82
2021/03/25 02:17:27;;;;;;;43.42;19.27;;;3.20;99.90;;;4.05;86.72;100928.66;4979826;28;20117;-83
2021/03/25 02:20:26;;;;;;;45.65;18.70;;;3.10;99.90;;;4.07;87.13;100920.06;4999336;28;20038;-84
2021/03/25 02:23:28;;;;;;;46.13;20.63;;;3.00;99.90;;;4.13;87.41;100922.41;4984918;28;20090;-80
2021/03/25 02:26:12;;;;;;;42.60;18.85;;;3.10;99.90;;;4.13;87.58;100919.66;4952985;28;20079;-82
2021/03/25 02:29:05;;;;;;;44.75;20.05;;;3.10;99.90;;;4.18;87.99;100915.94;4996829;28;20030;-82
2021/03/25 02:31:41;;;;;;;42.33;20.33;;;3.10;99.90;;;4.24;88.46;100918.28;4978362;28;20074;-82
2021/03/25 02:34:35;;;;;;;50.60;20.13;;;3.20;99.90;;;4.31;88.10;100915.09;4997133;28;20057;-80
2021/03/25 02:37:19;;;;;;;42.35;18.50;;;3.20;99.90;;;4.32;88.04;100910.41;4980675;28;20022;-80
2021/03/25 02:40:12;;;;;;;54.10;22.08;;;3.20;99.90;;;4.34;87.72;100903.44;4980099;28;20038;-79
2021/03/25 02:43:22;;;;;;;54.92;21.67;;;3.20;99.90;;;4.39;88.44;100905.28;4979882;28;20050;-87
2021/03/25 02:46:30;;;;;;;51.83;19.77;;;3.30;99.90;;;4.44;88.19;100908.72;4977390;28;20493;-83
2021/03/25 02:49:05;;;;;;;51.55;20.73;;;3.30;99.90;;;4.53;87.65;100897.75;4979658;28;20022;-85
2021/03/25 02:51:46;;;;;;;43.20;20.13;;;3.40;99.90;;;4.53;87.28;100894.97;4981411;28;20057;-84
2021/03/25 02:54:13;;;;;;;51.67;20.90;;;3.40;99.90;;;4.51;87.78;100892.53;4982061;28;20034;-85
2021/03/25 02:56:50;;;;;;;49.00;21.13;;;3.40;99.90;;;4.57;87.63;100898.75;4980799;28;20034;-84
2021/03/25 02:59:28;;;;;;;53.17;21.83;;;3.40;99.90;;;4.62;87.64;100896.69;4999158;28;20057;-82
2021/03/25 03:02:08;;;;;;;47.78;22.45;;;3.50;99.90;;;4.70;87.84;100886.84;4981963;28;20478;-82
2021/03/25 03:04:40;;;;;;;56.35;21.95;;;3.50;99.90;;;4.81;87.84;100884.66;4983011;28;20035;-82
2021/03/25 03:07:23;;;;;;;58.47;23.48;;;3.60;99.90;;;4.91;87.84;100901.00;4983668;28;20113;-83
2021/03/25 03:10:01;;;;;;;45.83;21.00;;;3.70;99.90;;;4.99;87.72;100898.28;4984627;28;20041;-83
2021/03/25 03:12:39;;;;;;;45.40;20.80;;;3.80;99.90;;;5.01;87.73;100892.47;4984551;28;20474;-85
2021/03/25 03:15:59;;;;;;;46.38;20.48;;;3.80;99.90;;;5.02;87.16;100891.31;5004196;28;20030;-87
2021/03/25 03:18:46;;;;;;;49.03;20.42;;;3.80;99.90;;;4.97;86.15;100889.50;4992714;28;20049;-81
2021/03/25 03:21:24;;;;;;;;;;;3.80;99.90;;;4.90;86.33;100893.81;5006271;28;20026;-86
2021/03/25 03:23:51;;;;;;;45.25;19.52;;;3.70;99.90;;;4.84;86.27;100892.31;5003722;28;19910;-87
2021/03/25 03:26:47;;;;;;;47.70;19.83;;;3.70;99.90;;;4.90;85.87;100893.81;4987627;28;20038;-86
2021/03/25 03:29:17;;;;;;;39.17;18.60;;;3.70;99.90;;;4.94;85.29;100895.66;5006224;28;20033;-85
2021/03/25 03:32:17;;;;;;;51.03;20.23;;;3.70;99.90;;;4.90;85.57;100899.38;5008025;28;20034;-79
2021/03/25 03:34:47;;;;;;;46.25;19.55;;;3.70;99.90;;;4.83;86.01;100891.50;5003213;28;20046;-80
2021/03/25 03:37:36;;;;;;;43.85;19.73;;;3.60;99.90;;;4.77;85.82;100896.34;5003380;28;20022;-77
2021/03/25 03:40:30;;;;;;;38.75;17.90;;;3.60;99.90;;;4.63;85.98;100891.97;4992270;28;20042;-82
2021/03/25 03:43:13;;;;;;;45.88;20.33;;;3.50;99.90;;;4.59;86.32;100889.00;4983302;28;20441;-81
2021/03/25 03:55:02;;;;;;;45.63;21.38;;;3.50;99.90;;;4.74;87.08;100910.81;5011543;28;20213;-84
2021/03/25 03:58:18;;;;;;;42.17;19.45;;;3.60;99.90;;;4.76;86.68;100900.22;4905930;29;20052;-80
2021/03/25 04:19:41;;;;;;;50.08;20.55;;;3.70;99.90;;;4.89;86.71;100911.56;4800987;29;20039;-84
2021/03/25 04:22:53;;;;;;;48.85;22.42;;;3.70;99.90;;;4.93;86.75;100909.81;4807324;29;20132;-81
2021/03/25 04:26:21;;;;;;;48.58;20.80;;;3.70;99.90;;;4.96;86.82;100911.94;4772265;30;20135;-82
2021/03/25 04:30:08;;;;;;;50.40;21.85;;;3.80;99.90;;;4.87;86.67;100916.59;4843424;29;20038;-84
2021/03/25 05:01:34;;;;;;;48.35;20.20;;;3.90;99.90;;;5.01;86.86;100920.13;4869042;22;20135;-83
2021/03/25 05:04:06;;;;;;;54.28;21.42;;;3.80;99.90;;;5.05;86.94;100924.72;5028821;28;20025;-81
2021/03/25 05:06:57;;;;;;;48.35;22.27;;;3.90;99.90;;;4.98;87.35;100921.56;5049936;28;20029;-80
2021/03/25 05:09:28;;;;;;;46.92;21.52;;;3.80;99.90;;;4.97;87.10;100924.66;5016579;28;20038;-83
2021/03/25 05:11:57;;;;;;;47.25;22.13;;;3.80;99.90;;;4.99;87.04;100919.63;4989536;28;20033;-82
2021/03/25 05:14:28;;;;;;;58.70;22.63;;;3.80;99.90;;;5.02;87.57;100925.34;4998947;28;20496;-83
2021/03/25 05:17:41;;;;;;;48.90;21.67;;;3.80;99.90;;;5.06;87.14;100920.81;4982433;28;20045;-83
2021/03/25 05:20:37;;;;;;;48.88;20.27;;;3.90;99.90;;;5.03;87.74;100921.44;4968853;28;20125;-85
2021/03/25 05:24:09;;;;;;;45.35;23.10;;;3.80;99.90;;;5.08;87.62;100921.31;4997967;28;20370;-81
2021/03/25 05:26:49;;;;;;;53.03;21.48;;;3.90;99.90;;;5.10;86.99;100915.47;4997697;28;20525;-85
2021/03/25 05:29:22;;;;;;;51.40;21.08;;;3.90;99.90;;;5.07;87.53;100924.41;4997343;28;20036;-85
2021/03/25 05:31:52;;;;;;;59.45;24.13;;;3.90;99.90;;;5.13;87.43;100920.38;4999651;28;20122;-82
2021/03/25 05:34:18;;;;;;;54.13;22.60;;;3.90;99.90;;;5.16;87.16;100925.28;4998234;28;20049;-84
2021/03/25 05:36:44;;;;;;;61.83;27.10;;;3.90;99.90;;;5.12;88.02;100929.81;4996557;28;20045;-83
2021/03/25 05:39:09;;;;;;;55.70;26.00;;;3.90;99.90;;;5.21;87.58;100931.50;4999901;28;20604;-81
2021/03/25 05:42:06;;;;;;;56.67;25.20;;;4.00;99.90;;;5.27;87.17;100926.66;4980945;28;20030;-82
2021/03/25 05:45:27;;;;;;;47.83;23.63;;;4.10;99.90;;;5.27;87.51;100923.88;4999107;28;20092;-82
2021/03/25 05:49:02;;;;;;;54.97;23.73;;;4.10;99.90;;;5.33;87.60;100928.97;4997699;28;20026;-82
2021/03/25 05:52:08;;;;;;;56.40;23.70;;;4.20;99.90;;;5.49;87.38;100918.31;4959695;28;20089;-81
2021/03/25 05:55:07;;;;;;;58.03;24.45;;;4.40;99.90;;;5.59;86.66;100931.06;4979988;28;20035;-84
2021/03/25 05:58:21;;;;;;;50.70;23.52;;;4.50;99.90;;;5.76;85.88;100928.41;4999755;28;20054;-85
2021/03/25 06:01:32;;;;;;;50.42;23.35;;;4.60;99.90;;;5.74;85.50;100931.50;4999389;28;20027;-83
2021/03/25 06:04:26;;;;;;;54.42;24.45;;;4.60;99.90;;;5.70;86.04;100941.59;4999375;28;20088;-85
2021/03/25 06:07:54;;;;;;;53.67;24.00;;;4.70;99.90;;;5.66;85.44;100935.03;4998803;28;20034;-84
2021/03/25 06:11:41;;;;;;;53.08;24.30;;;4.70;99.90;;;5.68;85.80;100945.81;4983564;28;20038;-81
2021/03/25 06:15:01;;;;;;;58.35;25.30;;;4.70;99.90;;;5.89;85.46;100943.31;4979641;28;20038;-83
2021/03/25 06:17:58;;;;;;;58.05;24.83;;;4.80;99.90;;;6.03;84.74;100964.28;5000339;28;20125;-83
2021/03/25 06:21:18;;;;;;;54.35;23.60;;;4.80;99.90;;;6.19;84.78;100953.56;5001573;28;20030;-83
2021/03/25 06:24:51;;;;;;;55.83;24.92;;;4.90;99.90;;;6.35;84.36;100958.34;5000396;28;20397;-83
2021/03/25 06:28:15;;;;;;;50.67;23.73;;;5.00;99.90;;;6.50;84.28;100970.94;4997800;28;20027;-82
2021/03/25 06:31:05;;;;;;;47.47;23.80;;;5.20;99.90;;;6.72;84.15;100972.75;4997224;28;20065;-81
2021/03/25 06:34:19;;;;;;;50.42;23.88;;;5.40;99.90;;;6.84;83.92;100962.66;4995379;28;20453;-83
2021/03/25 06:37:03;;;;;;;50.10;24.15;;;5.50;99.90;;;6.99;83.46;100971.66;4995725;28;20098;-82
2021/03/25 06:40:00;;;;;;;42.63;21.10;;;5.60;99.90;;;7.10;82.63;100970.97;4997007;28;20038;-82
2021/03/25 06:42:42;;;;;;;45.72;23.00;;;5.70;99.90;;;7.21;82.70;100982.59;4995748;28;20035;-82
2021/03/25 06:45:43;;;;;;;52.08;22.55;;;5.80;99.90;;;7.37;82.50;100975.38;4996583;28;20031;-85
2021/03/25 06:48:23;;;;;;;49.90;23.75;;;6.00;99.90;;;7.52;81.97;100977.66;4997723;28;20061;-85
2021/03/25 06:50:53;;;;;;;48.40;22.40;;;6.10;99.90;;;7.66;81.41;100974.69;4998698;28;20471;-83
2021/03/25 06:53:33;;;;;;;48.38;22.88;;;6.20;99.90;;;7.81;80.66;100972.19;5008033;28;20049;-80
2021/03/25 06:56:15;;;;;;;50.72;23.40;;;6.40;99.90;;;8.08;80.01;100982.06;5012679;28;20023;-80
2021/03/25 06:58:55;;;;;;;49.90;24.23;;;6.60;99.90;;;8.33;78.89;100983.13;5015072;28;20015;-80
2021/03/25 07:01:44;;;;;;;57.30;24.73;;;6.80;99.90;;;8.58;77.49;100979.38;4996144;28;20070;-81
2021/03/25 07:04:29;;;;;;;54.83;24.63;;;7.00;99.90;;;8.70;77.29;100978.69;5008981;28;20098;-82
2021/03/25 07:07:08;;;;;;;47.47;23.33;;;7.20;99.90;;;8.81;76.49;100979.91;4997394;28;20045;-85
2021/03/25 07:09:39;;;;;;;45.08;23.83;;;7.30;99.90;;;8.95;76.37;100984.06;5023986;28;20095;-83
2021/03/25 07:12:31;;;;;;;53.47;23.67;;;7.40;99.90;;;9.14;76.03;100985.56;5019018;28;20037;-83
2021/03/25 07:15:00;;;;;;;49.53;22.45;;;7.60;99.90;;;9.28;74.97;100983.31;5028295;28;20144;-83
2021/03/25 07:17:46;;;;;;;52.80;25.08;;;7.70;99.90;;;9.38;73.94;100988.44;5001497;28;20132;-84
2021/03/25 07:20:28;;;;;;;;;;;7.80;99.90;;;9.51;73.58;100985.38;5017793;28;20090;-85
2021/03/25 07:23:13;;;;;;;53.03;23.45;;;8.00;99.90;;;9.72;72.66;100988.13;5018633;28;19909;-83
2021/03/25 07:25:50;;;;;;;60.80;26.93;;;8.10;99.90;;;9.89;71.87;100985.13;5021803;28;20057;-78
2021/03/25 07:28:24;;;;;;;48.80;24.23;;;8.30;99.90;;;10.21;71.48;100988.25;5034758;28;20307;-83
2021/03/25 07:30:58;;;;;;;50.88;26.20;;;8.50;99.90;;;10.54;69.87;100986.16;5002748;28;20030;-82
2021/03/25 07:33:38;;;;;;;48.85;25.58;;;8.90;99.90;;;10.76;69.35;100985.66;5002146;28;20022;-80
2021/03/25 07:36:14;;;;;;;50.28;25.33;;;9.10;99.90;;;10.96;68.83;100986.69;5005803;28;20061;-88
2021/03/25 07:38:44;;;;;;;58.20;25.83;;;9.30;99.90;;;11.32;67.14;100994.16;5017238;28;20053;-87
2021/03/25 07:41:25;;;;;;;52.65;25.73;;;9.50;99.90;;;11.55;65.55;100990.47;5016713;28;20030;-88
2021/03/25 07:44:27;;;;;;;49.35;25.85;;;9.80;99.90;;;11.86;65.68;100988.94;5017249;28;20064;-85
2021/03/25 07:47:25;;;;;;;49.63;26.05;;;10.00;99.90;;;12.35;63.73;100987.44;5028018;28;20068;-85
2021/03/25 07:51:23;;;;;;;;;;;;;;;;;;;;;
2021/03/25 07:54:13;;;;;;;43.97;24.65;;;10.80;99.90;;;13.20;61.39;100989.44;5017557;28;20072;-84
2021/03/25 07:57:06;;;;;;;57.53;28.10;;;11.20;99.90;;;13.37;60.56;101003.06;5005105;28;20040;-84
2021/03/25 07:59:57;;;;;;;54.35;28.65;;;11.40;99.90;;;13.40;60.43;101007.09;5021433;28;20058;-83
2021/03/25 08:02:37;;;;;;;59.70;30.27;;;11.50;99.90;;;13.44;59.23;101008.00;5026727;28;20128;-84
2021/03/25 08:05:32;;;;;;;53.85;28.27;;;11.50;99.90;;;13.30;59.49;101007.69;5024995;28;20029;-84
2021/03/25 08:08:24;;;;;;;59.90;29.67;;;11.50;99.90;;;13.18;59.25;101009.47;5016276;28;20030;-83
2021/03/25 08:11:20;;;;;;;73.30;35.42;;;11.50;99.90;;;13.20;58.17;101009.91;4986730;28;20058;-84
2021/03/25 08:14:12;;;;;;;73.32;36.72;;;11.50;99.90;;;13.24;58.26;101006.34;4997071;28;20038;-83
2021/03/25 08:16:47;;;;;;;74.88;35.33;;;11.60;99.90;;;13.18;59.30;101011.47;4999557;28;20035;-86
2021/03/25 08:19:59;;;;;;;71.30;37.05;;;11.50;99.90;;;13.34;59.02;101014.19;4983023;28;20106;-82
2021/03/25 08:23:13;;;;;;;67.68;36.28;;;11.60;99.90;;;13.44;58.26;101010.81;4999284;28;20094;-83
2021/03/25 08:25:46;;;;;;;71.07;39.70;;;11.70;99.90;;;13.36;59.72;101009.84;4977136;28;20129;-84
2021/03/25 08:28:53;;;;;;;82.55;41.95;;;11.70;99.90;;;13.57;58.46;101010.31;4968670;28;20132;-83
2021/03/25 08:32:13;;;;;;;77.13;38.92;;;11.80;99.90;;;13.84;58.67;101005.59;4961905;28;20177;-85
2021/03/25 08:35:17;;;;;;;67.10;35.38;;;12.00;99.90;;;14.04;58.67;101000.78;4978718;28;20066;-86
2021/03/25 08:38:20;;;;;;;71.18;36.83;;;12.20;99.90;;;14.14;57.88;101006.59;4979313;28;20027;-86
2021/03/25 08:41:05;;;;;;;70.38;37.30;;;12.30;99.90;;;14.33;56.27;101004.91;4963534;28;20022;-89
2021/03/25 08:43:53;;;;;;;74.35;36.45;;;12.40;99.90;;;14.39;55.78;101009.06;4963937;28;20027;-87
2021/03/25 08:46:50;;;;;;;82.65;42.25;;;12.50;99.90;;;14.30;55.25;101003.66;4979753;28;20185;-85
2021/03/25 08:49:29;;;;;;;85.88;40.70;;;12.60;99.90;;;14.50;55.07;101010.88;4980310;28;20394;-87
2021/03/25 08:52:05;;;;;;;72.13;39.75;;;12.70;99.90;;;14.78;54.31;101011.31;4979058;28;20058;-88
2021/03/25 08:55:07;;;;;;;77.38;39.35;;;12.90;99.90;;;14.90;54.37;101013.09;4963901;28;20069;-87
2021/03/25 08:57:38;;;;;;;75.60;39.20;;;13.10;99.90;;;14.87;54.24;101013.88;4990639;28;20027;-85
2021/03/25 09:00:25;;;;;;;72.43;39.28;;;13.20;99.90;;;14.89;54.10;101011.50;4997121;28;20019;-85
2021/03/25 09:03:00;;;;;;;74.88;40.00;;;13.30;99.90;;;14.64;54.75;101008.28;4997885;28;20031;-84
2021/03/25 09:05:39;;;;;;;69.93;39.85;;;13.20;99.90;;;14.54;54.89;101016.56;4981885;28;20100;-85
2021/03/25 09:08:17;;;;;;;71.50;38.88;;;13.10;99.90;;;14.51;55.11;101018.09;5007371;28;20103;-85
2021/03/25 09:10:52;;;;;;;75.28;39.92;;;13.00;99.90;;;14.59;55.09;101019.03;5000268;28;20038;-84
2021/03/25 09:13:28;;;;;;;80.93;43.72;;;13.00;99.90;;;14.49;54.81;101017.66;4982338;28;20121;-83
2021/03/25 09:16:09;;;;;;;74.78;41.45;;;12.90;99.90;;;14.54;54.98;101010.94;4999099;28;20113;-82
2021/03/25 09:18:45;;;;;;;76.75;41.45;;;12.90;99.90;;;14.50;54.10;101012.88;4999204;28;20486;-83
2021/03/25 09:21:27;;;;;;;75.22;40.78;;;12.90;99.90;;;14.77;54.48;101006.88;4998277;28;20125;-83
2021/03/25 09:24:09;;;;;;;73.85;39.97;;;13.10;99.90;;;15.08;53.16;101013.38;5000127;28;20035;-84
2021/03/25 09:26:55;;;;;;;68.53;38.40;;;13.30;99.90;;;15.12;51.84;101008.63;5000365;28;20022;-83
2021/03/25 09:30:01;;;;;;;77.60;39.85;;;13.40;99.90;;;15.31;52.13;101008.50;4982816;28;20026;-82
2021/03/25 09:32:39;;;;;;;68.22;38.70;;;13.50;99.90;;;15.57;51.44;101014.06;4978973;28;20038;-81
2021/03/25 09:35:43;;;;;;;66.47;35.60;;;13.70;99.90;;;15.54;50.36;101014.03;5000841;28;20054;-85
2021/03/25 09:38:28;;;;;;;57.50;32.30;;;13.80;99.90;;;15.65;49.73;101015.78;5001156;28;20113;-82
2021/03/25 09:40:54;;;;;;;58.92;32.30;;;13.90;99.90;;;15.90;49.46;101015.25;5004456;28;20041;-83
2021/03/25 09:43:26;;;;;;;65.40;36.15;;;14.00;99.90;;;16.04;49.27;101018.25;4992235;28;20045;-84
2021/03/25 09:45:57;;;;;;;60.10;36.00;;;14.20;99.90;;;15.96;49.42;101025.00;5010617;28;20022;-82
2021/03/25 09:48:29;;;;;;;69.43;37.75;;;14.10;99.90;;;15.64;50.80;101018.97;5014172;28;20041;-86
2021/03/25 09:51:17;;;;;;;63.70;35.33;;;14.10;99.90;;;15.92;49.78;101010.88;4978389;28;20068;-83
2021/03/25 09:53:50;;;;;;;62.60;36.40;;;14.20;99.90;;;16.65;48.57;101010.00;4996076;28;20561;-82
2021/03/25 09:56:35;;;;;;;70.82;37.65;;;14.60;99.90;;;17.33;47.19;101009.25;4995477;28;20070;-82
2021/03/25 09:59:02;;;;;;;62.97;36.85;;;15.20;98.70;;;17.48;46.49;101014.94;4995806;28;20049;-85
2021/03/25 10:01:55;;;;;;;66.15;36.70;;;15.40;95.00;;;17.55;46.06;101015.00;4985457;28;20387;-83
2021/03/25 10:04:37;;;;;;;68.15;37.65;;;15.50;94.40;;;17.20;46.81;101015.63;5007151;28;20034;-84
2021/03/25 10:07:13;;;;;;;63.22;36.58;;;15.40;93.90;;;16.83;47.41;101021.41;4993204;28;20053;-84
2021/03/25 10:10:05;;;;;;;65.55;37.03;;;15.10;94.80;;;16.28;49.33;101014.84;5014541;28;20045;-83
2021/03/25 10:12:49;;;;;;;64.57;35.72;;;14.70;97.50;;;16.32;49.31;101007.25;5027656;28;20045;-84
2021/03/25 10:15:58;;;;;;;67.88;38.58;;;14.60;98.90;;;16.07;49.76;101014.66;5022378;28;20076;-84
2021/03/25 10:18:24;;;;;;;71.05;39.58;;;14.30;99.90;;;15.87;50.25;101002.75;4994609;28;20038;-83
2021/03/25 10:21:15;;;;;;;63.92;36.03;;;14.30;99.90;;;15.80;50.12;101006.31;5004426;28;20121;-83
2021/03/25 10:23:50;;;;;;;63.40;37.05;;;14.10;99.90;;;16.49;50.27;101002.97;5020789;28;20037;-82
2021/03/25 10:26:33;;;;;;;63.10;35.92;;;14.50;99.90;;;16.70;48.85;101003.16;5004309;28;20034;-83
2021/03/25 10:29:06;;;;;;;66.82;37.03;;;14.80;99.90;;;16.29;50.24;100999.56;5021814;28;20033;-83
2021/03/25 10:31:58;;;;;;;67.47;38.17;;;14.70;99.90;;;16.31;50.07;100997.19;5021270;28;20097;-85
2021/03/25 10:34:37;;;;;;;63.88;36.63;;;14.60;99.90;;;15.75;50.72;101003.84;5010488;28;20026;-82
2021/03/25 10:37:20;;;;;;;62.80;36.30;;;14.50;99.90;;;15.74;50.82;100998.59;5028050;28;20025;-85
2021/03/25 10:39:51;;;;;;;62.83;35.85;;;14.40;99.90;;;16.27;49.01;101005.63;5029546;28;20172;-83
2021/03/25 10:42:44;;;;;;;59.58;34.00;;;14.60;99.30;;;16.58;49.08;101006.31;5031862;28;20057;-83
2021/03/25 10:46:04;;;;;;;61.60;35.03;;;14.70;99.90;;;16.73;49.62;100993.91;5023566;28;20030;-84
2021/03/25 10:48:34;;;;;;;62.75;34.42;;;15.00;99.40;;;16.79;48.92;100989.56;4999127;28;20453;-83
2021/03/25 10:51:12;;;;;;;58.83;33.97;;;15.30;97.30;;;17.84;46.38;100999.78;5015640;28;20026;-85
2021/03/25 10:53:50;;;;;;;56.20;32.78;;;15.80;95.20;;;18.16;45.82;100991.38;5001594;28;20049;-82
2021/03/25 10:56:38;;;;;;;55.05;33.63;;;16.30;92.60;;;18.31;46.09;100993.00;5018999;28;20117;-85
2021/03/25 10:59:24;;;;;;;56.35;32.78;;;16.60;88.90;;;18.17;44.97;100998.66;5009296;28;20334;-86
2021/03/25 11:01:59;;;;;;;;;;;16.80;84.50;;;18.32;43.97;100992.63;5008519;22;20057;-82
2021/03/25 11:04:34;;;;;;;56.20;32.80;;;16.90;83.10;;;18.44;44.10;100994.25;4992951;28;19925;-83
2021/03/25 11:07:22;;;;;;;61.40;35.60;;;16.80;81.90;;;18.29;44.54;100984.13;4991499;28;20038;-82
2021/03/25 11:10:00;;;;;;;57.95;35.15;;;16.90;80.70;;;17.98;46.41;100990.56;4988453;28;20034;-84
2021/03/25 11:12:33;;;;;;;60.45;35.85;;;16.80;84.60;;;17.72;45.36;100995.31;4985222;28;20101;-85
2021/03/25 11:15:39;;;;;;;62.53;35.33;;;16.80;79.80;;;17.37;45.62;100990.28;4991421;28;20027;-84
2021/03/25 11:18:46;;;;;;;64.07;35.05;;;16.60;78.50;;;18.22;43.97;100989.78;4977208;28;20050;-84
2021/03/25 11:21:35;;;;;;;57.97;34.97;;;16.70;78.30;;;18.00;45.40;100997.41;4978333;28;20062;-85
2021/03/25 11:24:30;;;;;;;61.05;34.22;;;16.80;80.50;;;18.37;44.70;100985.75;4992396;28;20042;-84
2021/03/25 11:27:05;;;;;;;61.22;36.10;;;16.90;80.50;;;18.60;44.06;100989.03;4979336;28;20061;-83
2021/03/25 11:29:40;;;;;;;59.55;35.28;;;17.20;78.20;;;17.82;45.81;100985.25;4980747;28;20027;-85
2021/03/25 11:32:33;;;;;;;55.97;34.17;;;17.00;78.30;;;17.94;45.21;100990.53;4981273;28;20039;-84
2021/03/25 11:35:34;;;;;;;56.05;34.08;;;16.80;78.20;;;17.99;45.42;100983.69;4981878;28;20077;-84
2021/03/25 11:38:43;;;;;;;59.55;35.13;;;16.80;78.70;;;18.59;43.86;100983.78;4983215;28;20041;-84
2021/03/25 11:41:17;;;;;;;57.22;33.28;;;17.10;78.60;;;19.17;42.30;100977.63;4983321;28;20049;-84
2021/03/25 11:43:57;;;;;;;55.85;34.08;;;17.40;74.80;;;18.71;41.52;100977.72;4980915;28;20050;-84
2021/03/25 11:46:45;;;;;;;56.25;31.45;;;17.30;71.10;;;18.09;43.33;100983.69;4983080;28;20037;-85
2021/03/25 11:49:20;;;;;;;56.22;32.58;;;16.80;72.80;;;18.29;42.73;100979.28;4981548;28;20023;-84
2021/03/25 11:52:03;;;;;;;52.17;31.88;;;16.80;73.90;;;18.04;43.31;100986.94;4981629;28;20045;-84
2021/03/25 11:54:37;;;;;;;58.60;32.70;;;16.80;73.70;;;17.06;45.77;100976.00;4984090;28;20109;-84
2021/03/25 11:57:22;;;;;;;54.05;32.80;;;16.00;77.10;;;17.70;45.01;100972.31;4982140;28;20062;-85
2021/03/25 12:00:03;;;;;;;61.65;32.45;;;16.10;79.00;;;18.22;45.14;100967.97;4982092;28;20532;-85
2021/03/25 12:02:32;;;;;;;51.53;31.88;;;16.50;80.70;;;18.09;43.46;100974.41;4984049;28;20045;-85
2021/03/25 12:05:27;;;;;;;63.63;33.53;;;16.70;75.20;;;17.94;43.48;100970.75;4983182;28;20030;-84
2021/03/25 12:08:31;;;;;;;50.67;31.35;;;16.70;74.80;;;18.12;44.31;100968.75;4986985;28;20030;-84
2021/03/25 12:11:09;;;;;;;59.22;35.30;;;16.80;75.80;;;18.65;42.62;100968.03;4984623;28;20122;-83
2021/03/25 12:13:37;;;;;;;62.17;36.22;;;17.00;73.40;;;18.53;42.38;100965.56;4987612;28;20038;-86
2021/03/25 12:16:06;;;;;;;56.65;31.95;;;17.10;72.60;;;18.50;41.98;100961.53;4981240;28;20035;-87
2021/03/25 12:18:41;;;;;;;59.65;33.33;;;17.10;71.50;;;18.75;41.87;100958.72;4981479;28;20537;-87
2021/03/25 12:21:12;;;;;;;66.03;34.00;;;17.10;72.20;;;18.72;42.91;100951.81;4986331;28;20098;-85